Essex, Canada
Current Conditions -  °F | °C
As of 7:00 PM on Wednesday 26 Nov 2014 (Local Time) from CYQG Reporting Station
Snow Showers Snow Showers  
Wind Chill: 24°   Ceiling: 2700
Heat Index: 32°   Visibility: 7mi
Dew Point: 25°   Wind: 9mph
Humidity: 75%   Direction: 360°N
Pressure: 30.08"   Gusts: NA
Location:  42.17°N, 82.82°W
Report Text: CYQG 270000Z 36008KT 7SM -SHSN OVC027 00/M04 A3008 RMK SC8 CVCTV CLD ASOCTD SLP193
Loading
Personal Weather Stations






























Interactive Weather Map New forecast layout! Learn more

10-Day Weather Forecast

Advertisements
Track Severe Weather on mobile